Aviation Digital Data Service (ADDS)

Output produced by TAFs form (2219 UTC 25 January 2015)
found at http://www.aviationweather.gov/adds/tafs/
 
KPSF 251730Z 2518/2618 31013G23KT P6SM SCT040 
     FM260000 33005KT P6SM BKN100 BKN200 
     FM261200 01005KT P6SM VCSH BKN050 OVC100 
     FM261500 03005KT 4SM -SN BKN040 OVC080